sensor_id;sensor_type;location;lat;lon;timestamp;P1;durP1;ratioP1;P2;durP2;ratioP2
10232;SDS011;5161;48.174;11.756;2023-02-01T00:00:09;5.47;;;4.37;;
10232;SDS011;5161;48.174;11.756;2023-02-01T00:02:36;4.63;;;4.03;;
10232;SDS011;5161;48.174;11.756;2023-02-01T00:05:05;4.40;;;3.70;;
10232;SDS011;5161;48.174;11.756;2023-02-01T00:07:35;4.20;;;3.80;;
10232;SDS011;5161;48.174;11.756;2023-02-01T00:10:02;4.67;;;3.90;;
10232;SDS011;5161;48.174;11.756;2023-02-01T00:12:29;4.70;;;4.20;;
10232;SDS011;5161;48.174;11.756;2023-02-01T00:14:55;4.20;;;3.90;;
10232;SDS011;5161;48.174;11.756;2023-02-01T00:17:21;3.90;;;3.50;;
10232;SDS011;5161;48.174;11.756;2023-02-01T00:19:46;4.17;;;3.67;;
10232;SDS011;5161;48.174;11.756;2023-02-01T00:22:12;4.87;;;3.90;;
10232;SDS011;5161;48.174;11.756;2023-02-01T00:24:39;3.87;;;3.53;;
10232;SDS011;5161;48.174;11.756;2023-02-01T00:27:04;4.53;;;3.80;;
10232;SDS011;5161;48.174;11.756;2023-02-01T00:29:30;3.77;;;3.47;;
10232;SDS011;5161;48.174;11.756;2023-02-01T00:31:56;4.63;;;3.83;;
10232;SDS011;5161;48.174;11.756;2023-02-01T00:34:21;6.83;;;4.27;;
10232;SDS011;5161;48.174;11.756;2023-02-01T00:36:47;4.40;;;3.83;;
10232;SDS011;5161;48.174;11.756;2023-02-01T00:39:15;3.97;;;3.67;;
10232;SDS011;5161;48.174;11.756;2023-02-01T00:41:41;4.10;;;3.70;;
10232;SDS011;5161;48.174;11.756;2023-02-01T00:44:06;5.37;;;3.70;;
10232;SDS011;5161;48.174;11.756;2023-02-01T00:46:32;5.73;;;3.80;;
10232;SDS011;5161;48.174;11.756;2023-02-01T00:48:58;4.00;;;3.63;;
10232;SDS011;5161;48.174;11.756;2023-02-01T00:51:25;4.07;;;3.50;;
10232;SDS011;5161;48.174;11.756;2023-02-01T00:53:52;4.47;;;3.70;;
10232;SDS011;5161;48.174;11.756;2023-02-01T00:56:18;3.90;;;3.50;;
10232;SDS011;5161;48.174;11.756;2023-02-01T00:58:44;4.13;;;3.70;;
10232;SDS011;5161;48.174;11.756;2023-02-01T01:01:11;4.97;;;4.20;;
10232;SDS011;5161;48.174;11.756;2023-02-01T01:03:43;5.77;;;4.27;;
10232;SDS011;5161;48.174;11.756;2023-02-01T01:06:12;4.40;;;4.03;;
10232;SDS011;5161;48.174;11.756;2023-02-01T01:08:39;4.53;;;3.87;;
10232;SDS011;5161;48.174;11.756;2023-02-01T01:11:06;5.60;;;4.70;;
10232;SDS011;5161;48.174;11.756;2023-02-01T01:13:40;5.17;;;4.70;;
10232;SDS011;5161;48.174;11.756;2023-02-01T01:16:06;4.77;;;4.37;;
10232;SDS011;5161;48.174;11.756;2023-02-01T01:18:33;6.40;;;4.87;;
10232;SDS011;5161;48.174;11.756;2023-02-01T01:21:00;6.17;;;5.00;;
10232;SDS011;5161;48.174;11.756;2023-02-01T01:23:26;5.70;;;4.70;;
10232;SDS011;5161;48.174;11.756;2023-02-01T01:25:51;6.80;;;4.30;;
10232;SDS011;5161;48.174;11.756;2023-02-01T01:28:17;5.00;;;4.50;;
10232;SDS011;5161;48.174;11.756;2023-02-01T01:30:43;5.73;;;5.10;;
10232;SDS011;5161;48.174;11.756;2023-02-01T01:33:09;4.90;;;4.40;;
10232;SDS011;5161;48.174;11.756;2023-02-01T01:35:34;4.90;;;4.40;;
10232;SDS011;5161;48.174;11.756;2023-02-01T01:38:00;5.07;;;4.57;;
10232;SDS011;5161;48.174;11.756;2023-02-01T01:40:27;5.50;;;4.73;;
10232;SDS011;5161;48.174;11.756;2023-02-01T01:42:53;5.80;;;5.10;;
10232;SDS011;5161;48.174;11.756;2023-02-01T01:45:24;5.47;;;4.97;;
10232;SDS011;5161;48.174;11.756;2023-02-01T01:47:53;5.90;;;5.27;;
10232;SDS011;5161;48.174;11.756;2023-02-01T01:50:42;5.23;;;4.73;;
10232;SDS011;5161;48.174;11.756;2023-02-01T01:53:13;5.47;;;4.97;;
10232;SDS011;5161;48.174;11.756;2023-02-01T01:55:44;5.63;;;4.93;;
10232;SDS011;5161;48.174;11.756;2023-02-01T01:58:13;5.87;;;5.27;;
10232;SDS011;5161;48.174;11.756;2023-02-01T02:00:43;5.77;;;5.13;;
10232;SDS011;5161;48.174;11.756;2023-02-01T02:03:12;7.83;;;5.47;;
10232;SDS011;5161;48.174;11.756;2023-02-01T02:05:39;6.10;;;5.50;;
10232;SDS011;5161;48.174;11.756;2023-02-01T02:08:05;6.13;;;5.53;;
10232;SDS011;5161;48.174;11.756;2023-02-01T02:10:30;5.83;;;5.30;;
10232;SDS011;5161;48.174;11.756;2023-02-01T02:13:15;6.17;;;5.10;;
10232;SDS011;5161;48.174;11.756;2023-02-01T02:15:43;9.00;;;5.87;;
10232;SDS011;5161;48.174;11.756;2023-02-01T02:18:19;6.20;;;5.60;;
10232;SDS011;5161;48.174;11.756;2023-02-01T02:23:41;7.33;;;6.13;;
10232;SDS011;5161;48.174;11.756;2023-02-01T02:26:30;6.67;;;5.80;;
10232;SDS011;5161;48.174;11.756;2023-02-01T02:29:23;9.87;;;6.83;;
10232;SDS011;5161;48.174;11.756;2023-02-01T02:39:50;6.93;;;6.23;;
10232;SDS011;5161;48.174;11.756;2023-02-01T02:42:43;8.93;;;6.73;;
10232;SDS011;5161;48.174;11.756;2023-02-01T02:45:43;7.27;;;6.57;;
10232;SDS011;5161;48.174;11.756;2023-02-01T02:48:42;8.60;;;6.70;;
10232;SDS011;5161;48.174;11.756;2023-02-01T02:51:18;6.77;;;6.17;;
10232;SDS011;5161;48.174;11.756;2023-02-01T02:54:13;8.00;;;6.10;;
10232;SDS011;5161;48.174;11.756;2023-02-01T02:57:02;7.00;;;6.30;;
10232;SDS011;5161;48.174;11.756;2023-02-01T02:59:50;7.23;;;6.23;;
10232;SDS011;5161;48.174;11.756;2023-02-01T03:02:36;7.70;;;6.30;;
10232;SDS011;5161;48.174;11.756;2023-02-01T03:05:21;6.63;;;5.97;;
10232;SDS011;5161;48.174;11.756;2023-02-01T03:18:30;6.20;;;5.60;;
10232;SDS011;5161;48.174;11.756;2023-02-01T03:21:02;7.60;;;6.20;;
10232;SDS011;5161;48.174;11.756;2023-02-01T03:23:33;6.43;;;5.73;;
10232;SDS011;5161;48.174;11.756;2023-02-01T03:26:02;6.40;;;5.47;;
10232;SDS011;5161;48.174;11.756;2023-02-01T03:28:30;7.13;;;5.63;;
10232;SDS011;5161;48.174;11.756;2023-02-01T03:30:59;6.20;;;5.60;;
10232;SDS011;5161;48.174;11.756;2023-02-01T03:33:25;6.07;;;5.47;;
10232;SDS011;5161;48.174;11.756;2023-02-01T03:46:41;5.50;;;5.00;;
10232;SDS011;5161;48.174;11.756;2023-02-01T03:49:34;5.50;;;5.00;;
10232;SDS011;5161;48.174;11.756;2023-02-01T03:52:08;5.40;;;4.90;;
10232;SDS011;5161;48.174;11.756;2023-02-01T03:54:38;5.77;;;5.10;;
10232;SDS011;5161;48.174;11.756;2023-02-01T03:57:05;5.53;;;5.03;;
10232;SDS011;5161;48.174;11.756;2023-02-01T03:59:37;5.43;;;4.93;;
10232;SDS011;5161;48.174;11.756;2023-02-01T04:02:05;5.47;;;4.97;;
10232;SDS011;5161;48.174;11.756;2023-02-01T04:04:30;6.07;;;5.40;;
10232;SDS011;5161;48.174;11.756;2023-02-01T04:06:56;5.13;;;4.60;;
10232;SDS011;5161;48.174;11.756;2023-02-01T04:09:22;5.90;;;5.00;;
10232;SDS011;5161;48.174;11.756;2023-02-01T04:11:47;5.57;;;5.07;;
10232;SDS011;5161;48.174;11.756;2023-02-01T04:14:13;5.60;;;5.00;;
10232;SDS011;5161;48.174;11.756;2023-02-01T04:16:38;6.13;;;5.17;;
10232;SDS011;5161;48.174;11.756;2023-02-01T04:19:04;5.20;;;4.70;;
10232;SDS011;5161;48.174;11.756;2023-02-01T04:21:30;6.23;;;5.43;;
10232;SDS011;5161;48.174;11.756;2023-02-01T04:23:55;5.57;;;5.07;;
10232;SDS011;5161;48.174;11.756;2023-02-01T04:26:21;5.33;;;4.70;;
10232;SDS011;5161;48.174;11.756;2023-02-01T04:28:47;5.10;;;4.60;;
10232;SDS011;5161;48.174;11.756;2023-02-01T04:31:13;5.30;;;4.80;;
10232;SDS011;5161;48.174;11.756;2023-02-01T04:33:39;6.63;;;5.03;;
10232;SDS011;5161;48.174;11.756;2023-02-01T04:36:05;5.57;;;5.07;;
10232;SDS011;5161;48.174;11.756;2023-02-01T04:38:31;6.33;;;5.00;;
10232;SDS011;5161;48.174;11.756;2023-02-01T04:40:57;5.40;;;4.90;;
10232;SDS011;5161;48.174;11.756;2023-02-01T04:43:23;5.60;;;5.10;;
10232;SDS011;5161;48.174;11.756;2023-02-01T04:45:49;5.33;;;4.90;;
10232;SDS011;5161;48.174;11.756;2023-02-01T04:48:16;5.30;;;4.80;;
10232;SDS011;5161;48.174;11.756;2023-02-01T04:50:43;5.27;;;4.83;;
10232;SDS011;5161;48.174;11.756;2023-02-01T04:53:12;5.20;;;4.80;;
10232;SDS011;5161;48.174;11.756;2023-02-01T04:55:42;5.50;;;5.00;;
10232;SDS011;5161;48.174;11.756;2023-02-01T04:58:08;5.87;;;5.27;;
10232;SDS011;5161;48.174;11.756;2023-02-01T05:00:34;5.73;;;5.13;;
10232;SDS011;5161;48.174;11.756;2023-02-01T05:03:00;5.70;;;5.20;;
10232;SDS011;5161;48.174;11.756;2023-02-01T05:05:26;6.20;;;5.60;;
10232;SDS011;5161;48.174;11.756;2023-02-01T05:07:52;5.73;;;5.10;;
10232;SDS011;5161;48.174;11.756;2023-02-01T05:10:17;6.00;;;5.37;;
10232;SDS011;5161;48.174;11.756;2023-02-01T05:12:43;5.37;;;4.90;;
10232;SDS011;5161;48.174;11.756;2023-02-01T05:15:28;6.33;;;5.50;;
10232;SDS011;5161;48.174;11.756;2023-02-01T05:17:55;6.60;;;5.33;;
10232;SDS011;5161;48.174;11.756;2023-02-01T05:20:20;6.43;;;5.77;;
10232;SDS011;5161;48.174;11.756;2023-02-01T05:22:46;6.40;;;5.80;;
10232;SDS011;5161;48.174;11.756;2023-02-01T05:25:11;5.90;;;5.40;;
10232;SDS011;5161;48.174;11.756;2023-02-01T05:27:37;6.13;;;5.53;;
10232;SDS011;5161;48.174;11.756;2023-02-01T05:30:03;7.80;;;6.57;;
10232;SDS011;5161;48.174;11.756;2023-02-01T05:32:33;6.40;;;5.80;;
10232;SDS011;5161;48.174;11.756;2023-02-01T05:34:58;7.07;;;6.00;;
10232;SDS011;5161;48.174;11.756;2023-02-01T05:37:24;6.73;;;6.03;;
10232;SDS011;5161;48.174;11.756;2023-02-01T05:39:50;7.10;;;6.40;;
10232;SDS011;5161;48.174;11.756;2023-02-01T05:42:15;6.83;;;6.13;;
10232;SDS011;5161;48.174;11.756;2023-02-01T05:44:41;8.50;;;6.50;;
10232;SDS011;5161;48.174;11.756;2023-02-01T05:47:07;7.03;;;6.33;;
10232;SDS011;5161;48.174;11.756;2023-02-01T05:49:33;7.83;;;6.40;;
10232;SDS011;5161;48.174;11.756;2023-02-01T05:51:58;8.07;;;6.60;;
10232;SDS011;5161;48.174;11.756;2023-02-01T05:54:24;7.73;;;6.53;;
10232;SDS011;5161;48.174;11.756;2023-02-01T05:56:50;7.63;;;6.30;;
10232;SDS011;5161;48.174;11.756;2023-02-01T05:59:15;6.73;;;5.93;;
10232;SDS011;5161;48.174;11.756;2023-02-01T06:01:42;7.17;;;6.47;;
10232;SDS011;5161;48.174;11.756;2023-02-01T06:04:08;7.40;;;6.37;;
10232;SDS011;5161;48.174;11.756;2023-02-01T06:06:33;7.40;;;6.20;;
10232;SDS011;5161;48.174;11.756;2023-02-01T06:08:59;9.07;;;5.83;;
10232;SDS011;5161;48.174;11.756;2023-02-01T06:11:25;6.53;;;5.83;;
10232;SDS011;5161;48.174;11.756;2023-02-01T06:13:51;7.00;;;6.30;;
10232;SDS011;5161;48.174;11.756;2023-02-01T06:16:17;6.87;;;6.07;;
10232;SDS011;5161;48.174;11.756;2023-02-01T06:18:42;7.10;;;6.37;;
10232;SDS011;5161;48.174;11.756;2023-02-01T06:21:08;6.83;;;6.10;;
10232;SDS011;5161;48.174;11.756;2023-02-01T06:23:34;6.80;;;5.97;;
10232;SDS011;5161;48.174;11.756;2023-02-01T06:26:00;7.20;;;6.50;;
10232;SDS011;5161;48.174;11.756;2023-02-01T06:28:28;8.33;;;6.03;;
10232;SDS011;5161;48.174;11.756;2023-02-01T06:30:55;6.80;;;5.93;;
10232;SDS011;5161;48.174;11.756;2023-02-01T06:33:21;7.07;;;6.37;;
10232;SDS011;5161;48.174;11.756;2023-02-01T06:35:46;7.27;;;6.37;;
10232;SDS011;5161;48.174;11.756;2023-02-01T06:38:13;7.03;;;6.30;;
10232;SDS011;5161;48.174;11.756;2023-02-01T06:40:39;7.17;;;6.07;;
10232;SDS011;5161;48.174;11.756;2023-02-01T06:43:07;6.63;;;6.03;;
10232;SDS011;5161;48.174;11.756;2023-02-01T06:45:32;6.30;;;5.70;;
10232;SDS011;5161;48.174;11.756;2023-02-01T06:47:58;9.47;;;5.97;;
10232;SDS011;5161;48.174;11.756;2023-02-01T06:50:27;6.10;;;5.50;;
10232;SDS011;5161;48.174;11.756;2023-02-01T06:52:53;7.03;;;5.80;;
10232;SDS011;5161;48.174;11.756;2023-02-01T06:55:18;7.20;;;6.10;;
10232;SDS011;5161;48.174;11.756;2023-02-01T06:57:44;6.20;;;5.60;;
10232;SDS011;5161;48.174;11.756;2023-02-01T07:00:09;6.70;;;6.00;;
10232;SDS011;5161;48.174;11.756;2023-02-01T07:02:35;6.10;;;5.50;;
10232;SDS011;5161;48.174;11.756;2023-02-01T07:05:01;6.47;;;5.77;;
10232;SDS011;5161;48.174;11.756;2023-02-01T07:07:27;6.75;;;6.13;;
10232;SDS011;5161;48.174;11.756;2023-02-01T07:09:52;6.53;;;5.57;;
10232;SDS011;5161;48.174;11.756;2023-02-01T07:12:18;6.10;;;5.50;;
10232;SDS011;5161;48.174;11.756;2023-02-01T07:14:44;6.30;;;5.70;;
10232;SDS011;5161;48.174;11.756;2023-02-01T07:17:09;7.47;;;5.53;;
10232;SDS011;5161;48.174;11.756;2023-02-01T07:19:35;6.20;;;5.37;;
10232;SDS011;5161;48.174;11.756;2023-02-01T07:22:00;5.77;;;5.27;;
10232;SDS011;5161;48.174;11.756;2023-02-01T07:24:26;7.10;;;5.40;;
10232;SDS011;5161;48.174;11.756;2023-02-01T07:26:51;5.77;;;5.27;;
10232;SDS011;5161;48.174;11.756;2023-02-01T07:29:18;6.00;;;5.40;;
10232;SDS011;5161;48.174;11.756;2023-02-01T07:31:44;6.27;;;5.60;;
10232;SDS011;5161;48.174;11.756;2023-02-01T07:34:09;5.87;;;5.20;;
10232;SDS011;5161;48.174;11.756;2023-02-01T07:36:35;5.37;;;4.87;;
10232;SDS011;5161;48.174;11.756;2023-02-01T07:39:01;5.67;;;4.87;;
10232;SDS011;5161;48.174;11.756;2023-02-01T07:41:30;5.87;;;4.70;;
10232;SDS011;5161;48.174;11.756;2023-02-01T07:43:56;5.23;;;4.50;;
10232;SDS011;5161;48.174;11.756;2023-02-01T07:46:22;5.50;;;4.73;;
10232;SDS011;5161;48.174;11.756;2023-02-01T07:48:48;5.73;;;4.80;;
10232;SDS011;5161;48.174;11.756;2023-02-01T07:51:14;5.10;;;4.63;;
10232;SDS011;5161;48.174;11.756;2023-02-01T07:53:41;7.73;;;4.37;;
10232;SDS011;5161;48.174;11.756;2023-02-01T07:56:12;12.60;;;11.27;;
10232;SDS011;5161;48.174;11.756;2023-02-01T07:58:39;11.00;;;5.30;;
10232;SDS011;5161;48.174;11.756;2023-02-01T08:01:05;16.67;;;13.60;;
10232;SDS011;5161;48.174;11.756;2023-02-01T08:03:46;18.23;;;12.43;;
10232;SDS011;5161;48.174;11.756;2023-02-01T08:08:52;4.77;;;4.37;;
10232;SDS011;5161;48.174;11.756;2023-02-01T08:11:18;7.60;;;5.97;;
10232;SDS011;5161;48.174;11.756;2023-02-01T08:13:45;5.03;;;4.23;;
10232;SDS011;5161;48.174;11.756;2023-02-01T08:16:18;4.77;;;4.37;;
10232;SDS011;5161;48.174;11.756;2023-02-01T08:18:44;4.50;;;4.10;;
10232;SDS011;5161;48.174;11.756;2023-02-01T08:21:15;5.57;;;5.07;;
10232;SDS011;5161;48.174;11.756;2023-02-01T08:23:43;4.33;;;3.93;;
10232;SDS011;5161;48.174;11.756;2023-02-01T08:26:13;7.13;;;5.70;;
10232;SDS011;5161;48.174;11.756;2023-02-01T08:28:42;5.60;;;4.17;;
10232;SDS011;5161;48.174;11.756;2023-02-01T08:31:14;4.57;;;4.17;;
10232;SDS011;5161;48.174;11.756;2023-02-01T08:33:47;4.30;;;3.70;;
10232;SDS011;5161;48.174;11.756;2023-02-01T08:36:15;4.77;;;4.30;;
10232;SDS011;5161;48.174;11.756;2023-02-01T08:38:41;4.60;;;3.63;;
10232;SDS011;5161;48.174;11.756;2023-02-01T08:41:07;4.53;;;4.13;;
10232;SDS011;5161;48.174;11.756;2023-02-01T08:43:34;4.70;;;4.03;;
10232;SDS011;5161;48.174;11.756;2023-02-01T08:46:00;4.40;;;4.00;;
10232;SDS011;5161;48.174;11.756;2023-02-01T08:48:26;4.80;;;3.90;;
10232;SDS011;5161;48.174;11.756;2023-02-01T08:50:52;3.67;;;3.33;;
10232;SDS011;5161;48.174;11.756;2023-02-01T08:53:17;4.27;;;3.87;;
10232;SDS011;5161;48.174;11.756;2023-02-01T08:55:44;7.20;;;5.70;;
10232;SDS011;5161;48.174;11.756;2023-02-01T08:58:11;3.90;;;3.60;;
10232;SDS011;5161;48.174;11.756;2023-02-01T09:00:38;4.43;;;3.77;;
10232;SDS011;5161;48.174;11.756;2023-02-01T09:03:04;4.60;;;4.20;;
10232;SDS011;5161;48.174;11.756;2023-02-01T09:05:30;4.07;;;3.70;;
10232;SDS011;5161;48.174;11.756;2023-02-01T09:07:56;4.53;;;4.03;;
10232;SDS011;5161;48.174;11.756;2023-02-01T09:10:21;4.37;;;3.97;;
10232;SDS011;5161;48.174;11.756;2023-02-01T09:12:47;5.03;;;4.30;;
10232;SDS011;5161;48.174;11.756;2023-02-01T09:15:12;4.53;;;4.13;;
10232;SDS011;5161;48.174;11.756;2023-02-01T09:17:38;4.33;;;3.93;;
10232;SDS011;5161;48.174;11.756;2023-02-01T09:20:06;5.07;;;4.00;;
10232;SDS011;5161;48.174;11.756;2023-02-01T09:22:33;5.87;;;3.67;;
10232;SDS011;5161;48.174;11.756;2023-02-01T09:24:59;4.43;;;3.60;;
10232;SDS011;5161;48.174;11.756;2023-02-01T09:27:24;5.00;;;3.40;;
10232;SDS011;5161;48.174;11.756;2023-02-01T09:29:50;3.90;;;3.60;;
10232;SDS011;5161;48.174;11.756;2023-02-01T09:32:18;9.07;;;3.67;;
10232;SDS011;5161;48.174;11.756;2023-02-01T09:34:44;4.30;;;3.90;;
10232;SDS011;5161;48.174;11.756;2023-02-01T09:37:10;4.50;;;4.10;;
10232;SDS011;5161;48.174;11.756;2023-02-01T09:39:36;4.40;;;3.77;;
10232;SDS011;5161;48.174;11.756;2023-02-01T09:47:15;4.00;;;3.70;;
10232;SDS011;5161;48.174;11.756;2023-02-01T09:49:48;3.93;;;3.57;;
10232;SDS011;5161;48.174;11.756;2023-02-01T09:52:17;4.67;;;3.77;;
10232;SDS011;5161;48.174;11.756;2023-02-01T09:54:52;3.60;;;3.30;;
10232;SDS011;5161;48.174;11.756;2023-02-01T09:57:27;4.37;;;3.73;;
10232;SDS011;5161;48.174;11.756;2023-02-01T10:00:04;3.80;;;3.50;;
10232;SDS011;5161;48.174;11.756;2023-02-01T10:02:40;3.83;;;3.53;;
10232;SDS011;5161;48.174;11.756;2023-02-01T10:05:11;5.23;;;3.43;;
10232;SDS011;5161;48.174;11.756;2023-02-01T10:10:41;4.03;;;3.63;;
10232;SDS011;5161;48.174;11.756;2023-02-01T10:16:16;3.80;;;3.50;;
10232;SDS011;5161;48.174;11.756;2023-02-01T10:19:10;4.40;;;3.43;;
10232;SDS011;5161;48.174;11.756;2023-02-01T10:24:25;4.37;;;3.80;;
10232;SDS011;5161;48.174;11.756;2023-02-01T10:27:16;6.03;;;4.70;;
10232;SDS011;5161;48.174;11.756;2023-02-01T10:29:40;4.10;;;3.77;;
10232;SDS011;5161;48.174;11.756;2023-02-01T10:32:18;4.23;;;3.50;;
10232;SDS011;5161;48.174;11.756;2023-02-01T10:34:48;6.57;;;3.80;;
10232;SDS011;5161;48.174;11.756;2023-02-01T10:37:31;4.20;;;3.80;;
10232;SDS011;5161;48.174;11.756;2023-02-01T10:39:59;4.17;;;3.77;;
10232;SDS011;5161;48.174;11.756;2023-02-01T10:42:33;4.23;;;3.90;;
10232;SDS011;5161;48.174;11.756;2023-02-01T10:44:59;5.37;;;3.77;;
10232;SDS011;5161;48.174;11.756;2023-02-01T10:47:29;4.27;;;3.67;;
10232;SDS011;5161;48.174;11.756;2023-02-01T10:49:56;5.47;;;3.93;;
10232;SDS011;5161;48.174;11.756;2023-02-01T10:52:36;4.60;;;4.20;;
10232;SDS011;5161;48.174;11.756;2023-02-01T10:55:29;5.00;;;4.07;;
10232;SDS011;5161;48.174;11.756;2023-02-01T10:58:01;7.50;;;4.20;;
10232;SDS011;5161;48.174;11.756;2023-02-01T11:00:33;4.37;;;3.97;;
10232;SDS011;5161;48.174;11.756;2023-02-01T11:03:20;6.00;;;3.80;;
10232;SDS011;5161;48.174;11.756;2023-02-01T11:08:43;4.20;;;3.80;;
10232;SDS011;5161;48.174;11.756;2023-02-01T11:11:12;4.10;;;3.77;;
10232;SDS011;5161;48.174;11.756;2023-02-01T11:13:38;4.83;;;3.70;;
10232;SDS011;5161;48.174;11.756;2023-02-01T11:16:05;8.03;;;5.37;;
10232;SDS011;5161;48.174;11.756;2023-02-01T11:18:33;5.57;;;4.00;;
10232;SDS011;5161;48.174;11.756;2023-02-01T11:21:01;4.20;;;3.80;;
10232;SDS011;5161;48.174;11.756;2023-02-01T11:23:29;4.97;;;4.40;;
10232;SDS011;5161;48.174;11.756;2023-02-01T11:26:09;5.80;;;4.90;;
10232;SDS011;5161;48.174;11.756;2023-02-01T11:28:50;4.20;;;3.83;;
10232;SDS011;5161;48.174;11.756;2023-02-01T11:31:27;4.40;;;4.00;;
10232;SDS011;5161;48.174;11.756;2023-02-01T11:33:55;4.90;;;4.17;;
10232;SDS011;5161;48.174;11.756;2023-02-01T11:36:25;4.40;;;4.00;;
10232;SDS011;5161;48.174;11.756;2023-02-01T11:41:32;4.83;;;4.27;;
10232;SDS011;5161;48.174;11.756;2023-02-01T11:43:59;5.43;;;4.57;;
10232;SDS011;5161;48.174;11.756;2023-02-01T11:46:31;5.63;;;4.20;;
10232;SDS011;5161;48.174;11.756;2023-02-01T12:00:06;5.53;;;4.20;;
10232;SDS011;5161;48.174;11.756;2023-02-01T12:05:46;7.00;;;4.67;;
10232;SDS011;5161;48.174;11.756;2023-02-01T12:16:59;6.93;;;5.07;;
10232;SDS011;5161;48.174;11.756;2023-02-01T12:26:19;9.50;;;5.10;;
10232;SDS011;5161;48.174;11.756;2023-02-01T12:35:02;6.43;;;4.77;;
10232;SDS011;5161;48.174;11.756;2023-02-01T12:38:04;7.33;;;5.13;;
10232;SDS011;5161;48.174;11.756;2023-02-01T12:43:45;10.77;;;5.57;;
10232;SDS011;5161;48.174;11.756;2023-02-01T12:46:31;9.27;;;5.30;;
10232;SDS011;5161;48.174;11.756;2023-02-01T12:49:04;6.33;;;5.03;;
10232;SDS011;5161;48.174;11.756;2023-02-01T12:51:50;9.37;;;5.53;;
10232;SDS011;5161;48.174;11.756;2023-02-01T12:57:28;11.47;;;5.10;;
10232;SDS011;5161;48.174;11.756;2023-02-01T13:00:12;16.87;;;5.23;;
10232;SDS011;5161;48.174;11.756;2023-02-01T13:03:05;13.47;;;5.10;;
10232;SDS011;5161;48.174;11.756;2023-02-01T13:05:47;6.47;;;4.87;;
10232;SDS011;5161;48.174;11.756;2023-02-01T13:08:35;7.73;;;5.03;;
10232;SDS011;5161;48.174;11.756;2023-02-01T13:11:23;5.90;;;4.60;;
10232;SDS011;5161;48.174;11.756;2023-02-01T13:16:47;8.07;;;4.20;;
10232;SDS011;5161;48.174;11.756;2023-02-01T13:19:21;5.27;;;4.47;;
10232;SDS011;5161;48.174;11.756;2023-02-01T13:22:07;7.57;;;4.40;;
10232;SDS011;5161;48.174;11.756;2023-02-01T13:24:54;8.23;;;4.33;;
10232;SDS011;5161;48.174;11.756;2023-02-01T13:27:29;5.27;;;3.83;;
10232;SDS011;5161;48.174;11.756;2023-02-01T13:30:01;7.73;;;4.40;;
10232;SDS011;5161;48.174;11.756;2023-02-01T13:40:37;5.60;;;4.67;;
10232;SDS011;5161;48.174;11.756;2023-02-01T13:43:22;6.23;;;4.17;;
10232;SDS011;5161;48.174;11.756;2023-02-01T13:45:52;5.80;;;3.93;;
10232;SDS011;5161;48.174;11.756;2023-02-01T13:48:35;8.73;;;4.53;;
10232;SDS011;5161;48.174;11.756;2023-02-01T13:51:10;4.53;;;4.10;;
10232;SDS011;5161;48.174;11.756;2023-02-01T13:53:38;5.67;;;4.67;;
10232;SDS011;5161;48.174;11.756;2023-02-01T13:56:20;4.93;;;4.43;;
10232;SDS011;5161;48.174;11.756;2023-02-01T13:58:49;6.03;;;4.27;;
10232;SDS011;5161;48.174;11.756;2023-02-01T14:03:51;5.80;;;4.80;;
10232;SDS011;5161;48.174;11.756;2023-02-01T14:06:40;5.80;;;4.20;;
10232;SDS011;5161;48.174;11.756;2023-02-01T14:09:16;6.13;;;4.67;;
10232;SDS011;5161;48.174;11.756;2023-02-01T14:11:53;5.63;;;5.03;;
10232;SDS011;5161;48.174;11.756;2023-02-01T14:21:55;5.27;;;4.57;;
10232;SDS011;5161;48.174;11.756;2023-02-01T14:24:24;5.50;;;4.33;;
10232;SDS011;5161;48.174;11.756;2023-02-01T14:26:50;5.47;;;4.70;;
10232;SDS011;5161;48.174;11.756;2023-02-01T14:29:52;5.83;;;4.70;;
10232;SDS011;5161;48.174;11.756;2023-02-01T14:32:23;5.23;;;4.73;;
10232;SDS011;5161;48.174;11.756;2023-02-01T14:34:52;6.23;;;4.40;;
10232;SDS011;5161;48.174;11.756;2023-02-01T14:47:51;5.83;;;4.20;;
10232;SDS011;5161;48.174;11.756;2023-02-01T14:55:43;6.33;;;3.70;;
10232;SDS011;5161;48.174;11.756;2023-02-01T15:01:00;7.73;;;3.70;;
10232;SDS011;5161;48.174;11.756;2023-02-01T15:03:37;5.93;;;3.40;;
10232;SDS011;5161;48.174;11.756;2023-02-01T15:06:37;7.23;;;4.83;;
10232;SDS011;5161;48.174;11.756;2023-02-01T15:09:11;7.00;;;3.73;;
10232;SDS011;5161;48.174;11.756;2023-02-01T15:14:28;8.77;;;3.90;;
10232;SDS011;5161;48.174;11.756;2023-02-01T15:17:02;7.50;;;4.00;;
10232;SDS011;5161;48.174;11.756;2023-02-01T15:19:41;6.37;;;4.00;;
10232;SDS011;5161;48.174;11.756;2023-02-01T15:22:28;7.37;;;4.13;;
10232;SDS011;5161;48.174;11.756;2023-02-01T15:24:56;7.90;;;4.80;;
10232;SDS011;5161;48.174;11.756;2023-02-01T15:27:24;11.37;;;5.30;;
10232;SDS011;5161;48.174;11.756;2023-02-01T15:29:51;6.17;;;4.70;;
10232;SDS011;5161;48.174;11.756;2023-02-01T15:32:30;8.07;;;4.00;;
10232;SDS011;5161;48.174;11.756;2023-02-01T15:35:00;7.13;;;4.10;;
10232;SDS011;5161;48.174;11.756;2023-02-01T15:37:26;6.67;;;3.97;;
10232;SDS011;5161;48.174;11.756;2023-02-01T15:40:02;8.17;;;4.10;;
10232;SDS011;5161;48.174;11.756;2023-02-01T15:42:34;4.73;;;3.90;;
10232;SDS011;5161;48.174;11.756;2023-02-01T15:45:20;7.80;;;4.60;;
10232;SDS011;5161;48.174;11.756;2023-02-01T15:47:48;6.43;;;4.30;;
10232;SDS011;5161;48.174;11.756;2023-02-01T15:50:19;10.27;;;4.13;;
10232;SDS011;5161;48.174;11.756;2023-02-01T15:52:49;8.60;;;4.10;;
10232;SDS011;5161;48.174;11.756;2023-02-01T15:55:21;6.57;;;4.43;;
10232;SDS011;5161;48.174;11.756;2023-02-01T15:57:48;6.43;;;4.70;;
10232;SDS011;5161;48.174;11.756;2023-02-01T16:00:23;4.20;;;3.77;;
10232;SDS011;5161;48.174;11.756;2023-02-01T16:03:00;7.20;;;3.60;;
10232;SDS011;5161;48.174;11.756;2023-02-01T16:05:40;5.90;;;3.17;;
10232;SDS011;5161;48.174;11.756;2023-02-01T16:08:23;3.30;;;2.90;;
10232;SDS011;5161;48.174;11.756;2023-02-01T16:10:51;5.73;;;3.20;;
10232;SDS011;5161;48.174;11.756;2023-02-01T16:13:19;5.20;;;3.33;;
10232;SDS011;5161;48.174;11.756;2023-02-01T16:15:45;8.60;;;3.63;;
10232;SDS011;5161;48.174;11.756;2023-02-01T16:18:12;5.20;;;3.70;;
10232;SDS011;5161;48.174;11.756;2023-02-01T16:20:39;4.70;;;3.50;;
10232;SDS011;5161;48.174;11.756;2023-02-01T16:23:06;4.87;;;3.20;;
10232;SDS011;5161;48.174;11.756;2023-02-01T16:25:33;5.80;;;3.97;;
10232;SDS011;5161;48.174;11.756;2023-02-01T16:27:59;3.77;;;3.03;;
10232;SDS011;5161;48.174;11.756;2023-02-01T16:30:25;6.50;;;4.10;;
10232;SDS011;5161;48.174;11.756;2023-02-01T16:32:58;6.43;;;3.93;;
10232;SDS011;5161;48.174;11.756;2023-02-01T16:35:26;6.83;;;3.93;;
10232;SDS011;5161;48.174;11.756;2023-02-01T16:37:55;4.23;;;3.30;;
10232;SDS011;5161;48.174;11.756;2023-02-01T16:40:21;4.93;;;3.43;;
10232;SDS011;5161;48.174;11.756;2023-02-01T16:42:48;4.90;;;3.27;;
10232;SDS011;5161;48.174;11.756;2023-02-01T16:45:15;5.30;;;3.43;;
10232;SDS011;5161;48.174;11.756;2023-02-01T16:47:46;8.33;;;3.40;;
10232;SDS011;5161;48.174;11.756;2023-02-01T16:50:20;6.50;;;3.80;;
10232;SDS011;5161;48.174;11.756;2023-02-01T16:52:48;6.00;;;3.27;;
10232;SDS011;5161;48.174;11.756;2023-02-01T16:55:14;5.20;;;3.40;;
10232;SDS011;5161;48.174;11.756;2023-02-01T16:57:42;6.77;;;3.60;;
10232;SDS011;5161;48.174;11.756;2023-02-01T17:00:10;5.90;;;3.87;;
10232;SDS011;5161;48.174;11.756;2023-02-01T17:02:37;6.67;;;3.90;;
10232;SDS011;5161;48.174;11.756;2023-02-01T17:05:03;9.00;;;4.10;;
10232;SDS011;5161;48.174;11.756;2023-02-01T17:07:29;5.93;;;3.83;;
10232;SDS011;5161;48.174;11.756;2023-02-01T17:09:55;7.70;;;3.93;;
10232;SDS011;5161;48.174;11.756;2023-02-01T17:12:22;7.57;;;4.00;;
10232;SDS011;5161;48.174;11.756;2023-02-01T17:14:55;7.50;;;3.70;;
10232;SDS011;5161;48.174;11.756;2023-02-01T17:17:22;5.10;;;3.67;;
10232;SDS011;5161;48.174;11.756;2023-02-01T17:19:50;5.60;;;4.00;;
10232;SDS011;5161;48.174;11.756;2023-02-01T17:22:18;6.43;;;4.27;;
10232;SDS011;5161;48.174;11.756;2023-02-01T17:24:45;6.77;;;4.00;;